sensor_id;sensor_type;location;lat;lon;timestamp;P1;durP1;ratioP1;P2;durP2;ratioP2
80101;SDS011;69407;44.966;19.622;2023-07-28T00:01:16;7.75;;;2.55;;
80101;SDS011;69407;44.966;19.622;2023-07-28T00:03:42;6.20;;;1.95;;
80101;SDS011;69407;44.966;19.622;2023-07-28T00:06:07;4.47;;;1.80;;
80101;SDS011;69407;44.966;19.622;2023-07-28T00:08:32;4.95;;;1.77;;
80101;SDS011;69407;44.966;19.622;2023-07-28T00:10:57;6.33;;;2.20;;
80101;SDS011;69407;44.966;19.622;2023-07-28T00:13:23;7.10;;;2.77;;
80101;SDS011;69407;44.966;19.622;2023-07-28T00:15:48;12.17;;;3.60;;
80101;SDS011;69407;44.966;19.622;2023-07-28T00:18:13;9.83;;;3.53;;
80101;SDS011;69407;44.966;19.622;2023-07-28T00:20:39;10.17;;;3.77;;
80101;SDS011;69407;44.966;19.622;2023-07-28T00:23:04;10.23;;;2.95;;
80101;SDS011;69407;44.966;19.622;2023-07-28T00:25:29;11.30;;;3.23;;
80101;SDS011;69407;44.966;19.622;2023-07-28T00:27:55;7.83;;;2.90;;
80101;SDS011;69407;44.966;19.622;2023-07-28T00:30:20;7.47;;;2.25;;
80101;SDS011;69407;44.966;19.622;2023-07-28T00:32:45;6.50;;;2.83;;
80101;SDS011;69407;44.966;19.622;2023-07-28T00:35:11;6.03;;;2.03;;
80101;SDS011;69407;44.966;19.622;2023-07-28T00:37:36;6.47;;;2.58;;
80101;SDS011;69407;44.966;19.622;2023-07-28T00:40:01;9.80;;;2.00;;
80101;SDS011;69407;44.966;19.622;2023-07-28T00:42:26;6.60;;;2.47;;
80101;SDS011;69407;44.966;19.622;2023-07-28T00:44:52;8.70;;;3.10;;
80101;SDS011;69407;44.966;19.622;2023-07-28T00:47:17;6.17;;;2.87;;
80101;SDS011;69407;44.966;19.622;2023-07-28T00:49:42;13.60;;;3.55;;
80101;SDS011;69407;44.966;19.622;2023-07-28T00:52:08;17.88;;;4.18;;
80101;SDS011;69407;44.966;19.622;2023-07-28T00:54:33;16.87;;;5.77;;
80101;SDS011;69407;44.966;19.622;2023-07-28T00:56:59;22.38;;;6.15;;
80101;SDS011;69407;44.966;19.622;2023-07-28T00:59:24;22.90;;;6.60;;
80101;SDS011;69407;44.966;19.622;2023-07-28T01:01:50;19.98;;;6.57;;
80101;SDS011;69407;44.966;19.622;2023-07-28T01:04:16;15.77;;;5.63;;
80101;SDS011;69407;44.966;19.622;2023-07-28T01:06:49;18.08;;;6.05;;
80101;SDS011;69407;44.966;19.622;2023-07-28T01:09:21;16.88;;;4.80;;
80101;SDS011;69407;44.966;19.622;2023-07-28T01:11:52;13.35;;;4.45;;
80101;SDS011;69407;44.966;19.622;2023-07-28T01:14:18;7.35;;;3.50;;
80101;SDS011;69407;44.966;19.622;2023-07-28T01:16:43;10.63;;;3.60;;
80101;SDS011;69407;44.966;19.622;2023-07-28T01:19:08;12.05;;;4.55;;
80101;SDS011;69407;44.966;19.622;2023-07-28T01:21:34;12.63;;;4.05;;
80101;SDS011;69407;44.966;19.622;2023-07-28T01:26:38;7.03;;;2.60;;
80101;SDS011;69407;44.966;19.622;2023-07-28T01:29:03;8.13;;;2.70;;
80101;SDS011;69407;44.966;19.622;2023-07-28T01:31:30;7.70;;;2.40;;
80101;SDS011;69407;44.966;19.622;2023-07-28T01:33:55;5.07;;;1.98;;
80101;SDS011;69407;44.966;19.622;2023-07-28T01:36:21;7.38;;;2.40;;
80101;SDS011;69407;44.966;19.622;2023-07-28T01:38:46;12.38;;;2.88;;
80101;SDS011;69407;44.966;19.622;2023-07-28T01:41:11;8.70;;;3.15;;
80101;SDS011;69407;44.966;19.622;2023-07-28T01:43:37;9.60;;;2.83;;
80101;SDS011;69407;44.966;19.622;2023-07-28T01:46:02;6.75;;;2.58;;
80101;SDS011;69407;44.966;19.622;2023-07-28T01:48:27;9.52;;;2.13;;
80101;SDS011;69407;44.966;19.622;2023-07-28T01:50:53;8.03;;;3.10;;
80101;SDS011;69407;44.966;19.622;2023-07-28T01:53:18;5.63;;;2.27;;
80101;SDS011;69407;44.966;19.622;2023-07-28T01:55:43;8.23;;;2.63;;
80101;SDS011;69407;44.966;19.622;2023-07-28T01:58:08;7.45;;;2.72;;
80101;SDS011;69407;44.966;19.622;2023-07-28T02:00:34;7.93;;;2.40;;
80101;SDS011;69407;44.966;19.622;2023-07-28T02:03:00;6.65;;;2.80;;
80101;SDS011;69407;44.966;19.622;2023-07-28T02:05:27;6.18;;;2.67;;
80101;SDS011;69407;44.966;19.622;2023-07-28T02:07:53;6.78;;;2.20;;
80101;SDS011;69407;44.966;19.622;2023-07-28T02:10:18;5.07;;;1.73;;
80101;SDS011;69407;44.966;19.622;2023-07-28T02:12:44;8.73;;;2.33;;
80101;SDS011;69407;44.966;19.622;2023-07-28T02:15:11;7.55;;;2.38;;
80101;SDS011;69407;44.966;19.622;2023-07-28T02:17:36;7.50;;;2.22;;
80101;SDS011;69407;44.966;19.622;2023-07-28T02:20:02;8.65;;;3.30;;
80101;SDS011;69407;44.966;19.622;2023-07-28T02:22:28;9.25;;;2.50;;
80101;SDS011;69407;44.966;19.622;2023-07-28T02:24:53;6.78;;;1.75;;
80101;SDS011;69407;44.966;19.622;2023-07-28T02:27:19;7.30;;;2.07;;
80101;SDS011;69407;44.966;19.622;2023-07-28T02:29:44;4.43;;;2.00;;
80101;SDS011;69407;44.966;19.622;2023-07-28T02:32:10;6.72;;;2.15;;
80101;SDS011;69407;44.966;19.622;2023-07-28T02:34:36;5.03;;;2.03;;
80101;SDS011;69407;44.966;19.622;2023-07-28T02:37:01;8.20;;;2.28;;
80101;SDS011;69407;44.966;19.622;2023-07-28T02:39:26;7.28;;;2.15;;
80101;SDS011;69407;44.966;19.622;2023-07-28T02:41:52;8.13;;;1.83;;
80101;SDS011;69407;44.966;19.622;2023-07-28T02:44:17;14.97;;;3.37;;
80101;SDS011;69407;44.966;19.622;2023-07-28T02:46:42;8.77;;;2.20;;
80101;SDS011;69407;44.966;19.622;2023-07-28T02:49:07;8.57;;;2.05;;
80101;SDS011;69407;44.966;19.622;2023-07-28T02:51:33;11.57;;;2.23;;
80101;SDS011;69407;44.966;19.622;2023-07-28T02:53:59;5.72;;;2.35;;
80101;SDS011;69407;44.966;19.622;2023-07-28T02:56:24;9.07;;;2.42;;
80101;SDS011;69407;44.966;19.622;2023-07-28T02:58:50;13.47;;;2.27;;
80101;SDS011;69407;44.966;19.622;2023-07-28T03:01:15;8.38;;;2.80;;
80101;SDS011;69407;44.966;19.622;2023-07-28T03:03:40;7.37;;;2.00;;
80101;SDS011;69407;44.966;19.622;2023-07-28T03:06:06;6.77;;;2.70;;
80101;SDS011;69407;44.966;19.622;2023-07-28T03:08:31;6.23;;;3.20;;
80101;SDS011;69407;44.966;19.622;2023-07-28T03:10:59;5.80;;;2.40;;
80101;SDS011;69407;44.966;19.622;2023-07-28T03:13:27;8.60;;;2.97;;
80101;SDS011;69407;44.966;19.622;2023-07-28T03:15:53;8.77;;;2.97;;
80101;SDS011;69407;44.966;19.622;2023-07-28T03:18:18;10.23;;;3.28;;
80101;SDS011;69407;44.966;19.622;2023-07-28T03:20:43;11.17;;;3.67;;
80101;SDS011;69407;44.966;19.622;2023-07-28T03:23:08;9.43;;;3.10;;
80101;SDS011;69407;44.966;19.622;2023-07-28T03:25:34;7.33;;;3.33;;
80101;SDS011;69407;44.966;19.622;2023-07-28T03:27:59;8.43;;;4.07;;
80101;SDS011;69407;44.966;19.622;2023-07-28T03:30:24;7.97;;;3.60;;
80101;SDS011;69407;44.966;19.622;2023-07-28T03:32:49;6.73;;;3.27;;
80101;SDS011;69407;44.966;19.622;2023-07-28T03:35:15;9.65;;;4.00;;
80101;SDS011;69407;44.966;19.622;2023-07-28T03:37:40;9.60;;;3.60;;
80101;SDS011;69407;44.966;19.622;2023-07-28T03:40:05;11.77;;;4.37;;
80101;SDS011;69407;44.966;19.622;2023-07-28T03:42:31;7.18;;;3.50;;
80101;SDS011;69407;44.966;19.622;2023-07-28T03:44:57;8.90;;;3.35;;
80101;SDS011;69407;44.966;19.622;2023-07-28T03:47:22;8.40;;;2.92;;
80101;SDS011;69407;44.966;19.622;2023-07-28T03:49:47;12.30;;;3.85;;
80101;SDS011;69407;44.966;19.622;2023-07-28T03:52:12;6.20;;;2.63;;
80101;SDS011;69407;44.966;19.622;2023-07-28T03:54:38;9.23;;;3.70;;
80101;SDS011;69407;44.966;19.622;2023-07-28T03:57:03;11.27;;;3.53;;
80101;SDS011;69407;44.966;19.622;2023-07-28T03:59:28;8.52;;;3.50;;
80101;SDS011;69407;44.966;19.622;2023-07-28T04:01:54;11.60;;;3.33;;
80101;SDS011;69407;44.966;19.622;2023-07-28T04:04:19;6.15;;;3.13;;
80101;SDS011;69407;44.966;19.622;2023-07-28T04:06:48;5.93;;;3.38;;
80101;SDS011;69407;44.966;19.622;2023-07-28T04:09:18;9.57;;;3.35;;
80101;SDS011;69407;44.966;19.622;2023-07-28T04:11:43;9.23;;;3.25;;
80101;SDS011;69407;44.966;19.622;2023-07-28T04:14:09;9.60;;;3.33;;
80101;SDS011;69407;44.966;19.622;2023-07-28T04:16:34;11.23;;;4.00;;
80101;SDS011;69407;44.966;19.622;2023-07-28T04:18:59;10.77;;;4.00;;
80101;SDS011;69407;44.966;19.622;2023-07-28T04:21:25;11.45;;;4.50;;
80101;SDS011;69407;44.966;19.622;2023-07-28T04:23:50;12.18;;;4.30;;
80101;SDS011;69407;44.966;19.622;2023-07-28T04:26:16;12.43;;;4.90;;
80101;SDS011;69407;44.966;19.622;2023-07-28T04:28:42;10.00;;;4.47;;
80101;SDS011;69407;44.966;19.622;2023-07-28T04:31:07;12.60;;;3.97;;
80101;SDS011;69407;44.966;19.622;2023-07-28T04:33:32;8.10;;;3.67;;
80101;SDS011;69407;44.966;19.622;2023-07-28T04:35:57;7.33;;;4.07;;
80101;SDS011;69407;44.966;19.622;2023-07-28T04:38:23;10.35;;;4.97;;
80101;SDS011;69407;44.966;19.622;2023-07-28T04:40:48;10.43;;;3.97;;
80101;SDS011;69407;44.966;19.622;2023-07-28T04:43:13;9.15;;;4.20;;
80101;SDS011;69407;44.966;19.622;2023-07-28T04:45:39;9.23;;;3.80;;
80101;SDS011;69407;44.966;19.622;2023-07-28T04:48:04;8.83;;;3.33;;
80101;SDS011;69407;44.966;19.622;2023-07-28T04:50:29;8.70;;;4.13;;
80101;SDS011;69407;44.966;19.622;2023-07-28T04:52:55;9.32;;;4.07;;
80101;SDS011;69407;44.966;19.622;2023-07-28T04:55:20;7.83;;;3.93;;
80101;SDS011;69407;44.966;19.622;2023-07-28T04:57:46;12.52;;;4.57;;
80101;SDS011;69407;44.966;19.622;2023-07-28T05:00:11;7.95;;;4.35;;
80101;SDS011;69407;44.966;19.622;2023-07-28T05:02:37;13.68;;;4.47;;
80101;SDS011;69407;44.966;19.622;2023-07-28T05:05:02;11.20;;;4.77;;
80101;SDS011;69407;44.966;19.622;2023-07-28T05:07:27;12.02;;;4.28;;
80101;SDS011;69407;44.966;19.622;2023-07-28T05:09:54;11.88;;;4.07;;
80101;SDS011;69407;44.966;19.622;2023-07-28T05:12:19;7.23;;;3.73;;
80101;SDS011;69407;44.966;19.622;2023-07-28T05:14:45;10.02;;;3.75;;
80101;SDS011;69407;44.966;19.622;2023-07-28T05:17:10;12.52;;;4.30;;
80101;SDS011;69407;44.966;19.622;2023-07-28T05:19:36;9.77;;;3.63;;
80101;SDS011;69407;44.966;19.622;2023-07-28T05:22:01;19.00;;;4.95;;
80101;SDS011;69407;44.966;19.622;2023-07-28T05:24:26;13.70;;;4.10;;
80101;SDS011;69407;44.966;19.622;2023-07-28T05:26:52;8.52;;;3.63;;
80101;SDS011;69407;44.966;19.622;2023-07-28T05:29:17;11.50;;;4.10;;
80101;SDS011;69407;44.966;19.622;2023-07-28T05:31:42;9.33;;;3.90;;
80101;SDS011;69407;44.966;19.622;2023-07-28T05:34:07;10.00;;;3.57;;
80101;SDS011;69407;44.966;19.622;2023-07-28T05:36:33;11.50;;;3.92;;
80101;SDS011;69407;44.966;19.622;2023-07-28T05:38:58;9.60;;;4.85;;
80101;SDS011;69407;44.966;19.622;2023-07-28T05:41:23;10.00;;;3.60;;
80101;SDS011;69407;44.966;19.622;2023-07-28T05:43:49;8.00;;;3.35;;
80101;SDS011;69407;44.966;19.622;2023-07-28T05:46:14;9.18;;;4.20;;
80101;SDS011;69407;44.966;19.622;2023-07-28T05:48:40;10.87;;;3.80;;
80101;SDS011;69407;44.966;19.622;2023-07-28T05:51:05;7.60;;;3.83;;
80101;SDS011;69407;44.966;19.622;2023-07-28T05:53:31;10.07;;;3.90;;
80101;SDS011;69407;44.966;19.622;2023-07-28T05:55:56;10.63;;;3.90;;
80101;SDS011;69407;44.966;19.622;2023-07-28T05:58:21;9.32;;;3.67;;
80101;SDS011;69407;44.966;19.622;2023-07-28T06:00:46;14.15;;;3.53;;
80101;SDS011;69407;44.966;19.622;2023-07-28T06:03:13;9.18;;;2.80;;
80101;SDS011;69407;44.966;19.622;2023-07-28T06:05:38;10.02;;;3.03;;
80101;SDS011;69407;44.966;19.622;2023-07-28T06:08:05;7.53;;;3.00;;
80101;SDS011;69407;44.966;19.622;2023-07-28T06:10:30;5.95;;;3.38;;
80101;SDS011;69407;44.966;19.622;2023-07-28T06:12:55;4.57;;;2.40;;
80101;SDS011;69407;44.966;19.622;2023-07-28T06:15:21;7.57;;;3.00;;
80101;SDS011;69407;44.966;19.622;2023-07-28T06:17:46;6.90;;;3.30;;
80101;SDS011;69407;44.966;19.622;2023-07-28T06:20:11;7.37;;;3.07;;
80101;SDS011;69407;44.966;19.622;2023-07-28T06:22:37;9.10;;;3.55;;
80101;SDS011;69407;44.966;19.622;2023-07-28T06:25:02;6.97;;;3.37;;
80101;SDS011;69407;44.966;19.622;2023-07-28T06:27:30;6.30;;;3.22;;
80101;SDS011;69407;44.966;19.622;2023-07-28T06:29:55;7.00;;;3.70;;
80101;SDS011;69407;44.966;19.622;2023-07-28T06:32:21;9.40;;;3.07;;
80101;SDS011;69407;44.966;19.622;2023-07-28T06:34:48;6.22;;;2.85;;
80101;SDS011;69407;44.966;19.622;2023-07-28T06:37:13;8.18;;;3.30;;
80101;SDS011;69407;44.966;19.622;2023-07-28T06:39:39;6.73;;;3.53;;
80101;SDS011;69407;44.966;19.622;2023-07-28T06:42:04;5.35;;;2.83;;
80101;SDS011;69407;44.966;19.622;2023-07-28T06:44:30;7.45;;;3.20;;
80101;SDS011;69407;44.966;19.622;2023-07-28T06:46:56;6.07;;;3.08;;
80101;SDS011;69407;44.966;19.622;2023-07-28T06:49:21;4.90;;;3.10;;
80101;SDS011;69407;44.966;19.622;2023-07-28T06:51:46;7.88;;;2.92;;
80101;SDS011;69407;44.966;19.622;2023-07-28T06:54:12;7.23;;;3.00;;
80101;SDS011;69407;44.966;19.622;2023-07-28T06:56:38;5.72;;;3.10;;
80101;SDS011;69407;44.966;19.622;2023-07-28T06:59:03;6.68;;;3.40;;
80101;SDS011;69407;44.966;19.622;2023-07-28T07:01:28;8.43;;;3.28;;
80101;SDS011;69407;44.966;19.622;2023-07-28T07:03:54;6.05;;;3.25;;
80101;SDS011;69407;44.966;19.622;2023-07-28T07:06:20;8.38;;;3.45;;
80101;SDS011;69407;44.966;19.622;2023-07-28T07:08:45;8.90;;;2.77;;
80101;SDS011;69407;44.966;19.622;2023-07-28T07:11:10;3.80;;;2.63;;
80101;SDS011;69407;44.966;19.622;2023-07-28T07:13:36;6.60;;;3.10;;
80101;SDS011;69407;44.966;19.622;2023-07-28T07:16:01;5.67;;;2.90;;
80101;SDS011;69407;44.966;19.622;2023-07-28T07:18:27;7.10;;;3.00;;
80101;SDS011;69407;44.966;19.622;2023-07-28T07:20:52;8.02;;;2.65;;
80101;SDS011;69407;44.966;19.622;2023-07-28T07:23:18;7.15;;;2.95;;
80101;SDS011;69407;44.966;19.622;2023-07-28T07:25:43;9.17;;;3.10;;
80101;SDS011;69407;44.966;19.622;2023-07-28T07:28:09;5.38;;;2.38;;
80101;SDS011;69407;44.966;19.622;2023-07-28T07:30:34;6.40;;;2.70;;
80101;SDS011;69407;44.966;19.622;2023-07-28T07:32:59;7.72;;;2.55;;
80101;SDS011;69407;44.966;19.622;2023-07-28T07:35:24;6.65;;;2.88;;
80101;SDS011;69407;44.966;19.622;2023-07-28T07:37:50;5.97;;;2.73;;
80101;SDS011;69407;44.966;19.622;2023-07-28T07:40:15;9.53;;;3.40;;
80101;SDS011;69407;44.966;19.622;2023-07-28T07:42:45;6.63;;;2.80;;
80101;SDS011;69407;44.966;19.622;2023-07-28T07:45:11;6.03;;;2.75;;
80101;SDS011;69407;44.966;19.622;2023-07-28T07:47:37;5.97;;;2.83;;
80101;SDS011;69407;44.966;19.622;2023-07-28T07:50:02;5.45;;;2.55;;
80101;SDS011;69407;44.966;19.622;2023-07-28T07:52:28;7.93;;;2.95;;
80101;SDS011;69407;44.966;19.622;2023-07-28T07:54:53;4.30;;;2.50;;
80101;SDS011;69407;44.966;19.622;2023-07-28T07:57:18;3.97;;;2.10;;
80101;SDS011;69407;44.966;19.622;2023-07-28T07:59:44;4.57;;;2.47;;
80101;SDS011;69407;44.966;19.622;2023-07-28T08:02:09;5.07;;;2.40;;
80101;SDS011;69407;44.966;19.622;2023-07-28T08:04:34;3.95;;;2.28;;
80101;SDS011;69407;44.966;19.622;2023-07-28T08:07:01;5.45;;;2.55;;
80101;SDS011;69407;44.966;19.622;2023-07-28T08:09:26;5.53;;;2.90;;
80101;SDS011;69407;44.966;19.622;2023-07-28T08:11:52;6.68;;;3.15;;
80101;SDS011;69407;44.966;19.622;2023-07-28T08:14:18;4.32;;;3.92;;
80101;SDS011;69407;44.966;19.622;2023-07-28T08:16:43;8.95;;;4.32;;
80101;SDS011;69407;44.966;19.622;2023-07-28T08:19:08;5.30;;;3.53;;
80101;SDS011;69407;44.966;19.622;2023-07-28T08:21:34;7.15;;;3.78;;
80101;SDS011;69407;44.966;19.622;2023-07-28T08:24:02;6.07;;;3.35;;
80101;SDS011;69407;44.966;19.622;2023-07-28T08:26:28;5.75;;;3.65;;
80101;SDS011;69407;44.966;19.622;2023-07-28T08:28:54;8.23;;;4.60;;
80101;SDS011;69407;44.966;19.622;2023-07-28T08:31:19;4.43;;;3.90;;
80101;SDS011;69407;44.966;19.622;2023-07-28T08:33:44;6.07;;;4.90;;
80101;SDS011;69407;44.966;19.622;2023-07-28T08:36:10;4.07;;;3.33;;
80101;SDS011;69407;44.966;19.622;2023-07-28T08:38:35;4.77;;;1.83;;
80101;SDS011;69407;44.966;19.622;2023-07-28T08:41:00;6.30;;;1.73;;
80101;SDS011;69407;44.966;19.622;2023-07-28T08:43:25;5.23;;;1.93;;
80101;SDS011;69407;44.966;19.622;2023-07-28T08:45:51;4.17;;;2.40;;
80101;SDS011;69407;44.966;19.622;2023-07-28T08:48:17;7.07;;;2.60;;
80101;SDS011;69407;44.966;19.622;2023-07-28T08:50:43;4.50;;;2.10;;
80101;SDS011;69407;44.966;19.622;2023-07-28T08:53:08;8.00;;;2.25;;
80101;SDS011;69407;44.966;19.622;2023-07-28T08:55:33;4.47;;;1.98;;
80101;SDS011;69407;44.966;19.622;2023-07-28T08:58:13;4.83;;;1.83;;
80101;SDS011;69407;44.966;19.622;2023-07-28T09:00:39;3.33;;;2.03;;
80101;SDS011;69407;44.966;19.622;2023-07-28T09:03:07;6.93;;;2.20;;
80101;SDS011;69407;44.966;19.622;2023-07-28T09:05:34;4.85;;;2.30;;
80101;SDS011;69407;44.966;19.622;2023-07-28T09:07:59;3.35;;;1.83;;
80101;SDS011;69407;44.966;19.622;2023-07-28T09:10:24;6.33;;;1.83;;
80101;SDS011;69407;44.966;19.622;2023-07-28T09:12:50;5.25;;;2.40;;
80101;SDS011;69407;44.966;19.622;2023-07-28T09:15:16;10.15;;;1.60;;
80101;SDS011;69407;44.966;19.622;2023-07-28T09:17:42;6.65;;;2.22;;
80101;SDS011;69407;44.966;19.622;2023-07-28T09:20:09;6.63;;;2.33;;
80101;SDS011;69407;44.966;19.622;2023-07-28T09:22:37;6.97;;;2.10;;
80101;SDS011;69407;44.966;19.622;2023-07-28T09:25:10;13.73;;;2.20;;
80101;SDS011;69407;44.966;19.622;2023-07-28T09:27:36;7.07;;;1.52;;
80101;SDS011;69407;44.966;19.622;2023-07-28T09:30:01;3.97;;;1.67;;
80101;SDS011;69407;44.966;19.622;2023-07-28T09:32:27;6.15;;;1.55;;
80101;SDS011;69407;44.966;19.622;2023-07-28T09:35:15;9.48;;;1.92;;
80101;SDS011;69407;44.966;19.622;2023-07-28T09:37:40;10.90;;;1.92;;
80101;SDS011;69407;44.966;19.622;2023-07-28T09:40:09;10.77;;;2.08;;
80101;SDS011;69407;44.966;19.622;2023-07-28T09:42:38;8.95;;;2.10;;
80101;SDS011;69407;44.966;19.622;2023-07-28T09:45:04;7.63;;;1.40;;
80101;SDS011;69407;44.966;19.622;2023-07-28T09:47:30;4.03;;;1.08;;
80101;SDS011;69407;44.966;19.622;2023-07-28T09:49:55;7.82;;;1.30;;
80101;SDS011;69407;44.966;19.622;2023-07-28T09:52:23;6.72;;;1.77;;
80101;SDS011;69407;44.966;19.622;2023-07-28T09:54:49;6.85;;;1.58;;
80101;SDS011;69407;44.966;19.622;2023-07-28T09:57:19;6.75;;;2.15;;
80101;SDS011;69407;44.966;19.622;2023-07-28T09:59:45;5.65;;;1.75;;
80101;SDS011;69407;44.966;19.622;2023-07-28T10:02:11;4.60;;;1.17;;
80101;SDS011;69407;44.966;19.622;2023-07-28T10:04:36;10.57;;;2.15;;
80101;SDS011;69407;44.966;19.622;2023-07-28T10:07:04;5.10;;;1.30;;
80101;SDS011;69407;44.966;19.622;2023-07-28T10:11:56;3.85;;;1.20;;
80101;SDS011;69407;44.966;19.622;2023-07-28T10:14:28;6.07;;;1.80;;
80101;SDS011;69407;44.966;19.622;2023-07-28T10:16:55;9.23;;;1.52;;
80101;SDS011;69407;44.966;19.622;2023-07-28T10:19:21;7.05;;;1.85;;
80101;SDS011;69407;44.966;19.622;2023-07-28T10:21:46;3.75;;;1.45;;
80101;SDS011;69407;44.966;19.622;2023-07-28T10:24:11;4.70;;;1.35;;
80101;SDS011;69407;44.966;19.622;2023-07-28T10:26:38;4.00;;;1.55;;
80101;SDS011;69407;44.966;19.622;2023-07-28T10:29:07;4.10;;;1.30;;
80101;SDS011;69407;44.966;19.622;2023-07-28T10:31:33;4.68;;;1.13;;
80101;SDS011;69407;44.966;19.622;2023-07-28T10:33:59;5.07;;;1.45;;
80101;SDS011;69407;44.966;19.622;2023-07-28T10:38:59;4.75;;;1.20;;
80101;SDS011;69407;44.966;19.622;2023-07-28T10:41:27;4.50;;;1.17;;
80101;SDS011;69407;44.966;19.622;2023-07-28T10:43:53;2.00;;;1.15;;
80101;SDS011;69407;44.966;19.622;2023-07-28T10:46:20;3.45;;;1.25;;
80101;SDS011;69407;44.966;19.622;2023-07-28T10:48:46;8.90;;;2.20;;
80101;SDS011;69407;44.966;19.622;2023-07-28T10:51:12;5.65;;;1.20;;
80101;SDS011;69407;44.966;19.622;2023-07-28T10:53:44;4.85;;;1.38;;
80101;SDS011;69407;44.966;19.622;2023-07-28T10:56:09;5.23;;;1.37;;
80101;SDS011;69407;44.966;19.622;2023-07-28T10:58:35;3.60;;;1.13;;
80101;SDS011;69407;44.966;19.622;2023-07-28T11:01:01;4.43;;;1.30;;
80101;SDS011;69407;44.966;19.622;2023-07-28T11:03:27;5.75;;;1.00;;
80101;SDS011;69407;44.966;19.622;2023-07-28T11:05:54;4.57;;;1.40;;
80101;SDS011;69407;44.966;19.622;2023-07-28T11:08:19;6.85;;;1.10;;
80101;SDS011;69407;44.966;19.622;2023-07-28T11:10:45;4.80;;;1.00;;
80101;SDS011;69407;44.966;19.622;2023-07-28T11:13:10;3.47;;;0.75;;
80101;SDS011;69407;44.966;19.622;2023-07-28T11:15:36;3.78;;;0.68;;
80101;SDS011;69407;44.966;19.622;2023-07-28T11:18:02;2.80;;;1.15;;
80101;SDS011;69407;44.966;19.622;2023-07-28T11:20:28;5.30;;;1.70;;
80101;SDS011;69407;44.966;19.622;2023-07-28T11:25:19;5.18;;;0.88;;
80101;SDS011;69407;44.966;19.622;2023-07-28T11:27:46;6.15;;;1.17;;
80101;SDS011;69407;44.966;19.622;2023-07-28T11:30:12;7.38;;;1.65;;
80101;SDS011;69407;44.966;19.622;2023-07-28T11:32:37;6.32;;;1.08;;
80101;SDS011;69407;44.966;19.622;2023-07-28T11:35:05;5.68;;;1.00;;
80101;SDS011;69407;44.966;19.622;2023-07-28T11:37:32;3.85;;;1.10;;
80101;SDS011;69407;44.966;19.622;2023-07-28T11:39:59;5.25;;;1.23;;
80101;SDS011;69407;44.966;19.622;2023-07-28T11:42:26;3.40;;;1.00;;
80101;SDS011;69407;44.966;19.622;2023-07-28T11:44:52;3.80;;;1.02;;
80101;SDS011;69407;44.966;19.622;2023-07-28T11:47:17;5.85;;;1.60;;
80101;SDS011;69407;44.966;19.622;2023-07-28T11:49:48;5.43;;;1.10;;
80101;SDS011;69407;44.966;19.622;2023-07-28T11:52:14;2.83;;;1.15;;
80101;SDS011;69407;44.966;19.622;2023-07-28T11:54:40;4.13;;;1.15;;
80101;SDS011;69407;44.966;19.622;2023-07-28T11:57:05;4.03;;;1.48;;
80101;SDS011;69407;44.966;19.622;2023-07-28T11:59:31;5.15;;;0.93;;
80101;SDS011;69407;44.966;19.622;2023-07-28T12:02:01;3.97;;;1.02;;
80101;SDS011;69407;44.966;19.622;2023-07-28T12:04:27;3.53;;;1.05;;
80101;SDS011;69407;44.966;19.622;2023-07-28T12:07:08;5.85;;;2.03;;
80101;SDS011;69407;44.966;19.622;2023-07-28T12:12:12;4.57;;;1.13;;
80101;SDS011;69407;44.966;19.622;2023-07-28T12:14:38;4.45;;;0.95;;
80101;SDS011;69407;44.966;19.622;2023-07-28T12:17:03;4.88;;;1.30;;
80101;SDS011;69407;44.966;19.622;2023-07-28T12:19:28;5.93;;;3.00;;
80101;SDS011;69407;44.966;19.622;2023-07-28T12:21:54;8.85;;;2.13;;
80101;SDS011;69407;44.966;19.622;2023-07-28T12:24:19;5.68;;;1.40;;
80101;SDS011;69407;44.966;19.622;2023-07-28T12:26:48;7.05;;;1.50;;
80101;SDS011;69407;44.966;19.622;2023-07-28T12:29:13;6.28;;;1.88;;
80101;SDS011;69407;44.966;19.622;2023-07-28T12:31:39;4.63;;;1.20;;
80101;SDS011;69407;44.966;19.622;2023-07-28T12:34:04;3.38;;;1.23;;
80101;SDS011;69407;44.966;19.622;2023-07-28T12:36:29;3.58;;;1.33;;
80101;SDS011;69407;44.966;19.622;2023-07-28T12:38:55;6.32;;;1.58;;
80101;SDS011;69407;44.966;19.622;2023-07-28T12:41:20;6.33;;;1.23;;
80101;SDS011;69407;44.966;19.622;2023-07-28T12:43:45;3.75;;;1.88;;
80101;SDS011;69407;44.966;19.622;2023-07-28T12:46:10;5.38;;;1.58;;
80101;SDS011;69407;44.966;19.622;2023-07-28T12:48:37;4.25;;;1.55;;
80101;SDS011;69407;44.966;19.622;2023-07-28T12:51:02;5.35;;;1.52;;
80101;SDS011;69407;44.966;19.622;2023-07-28T12:53:28;6.53;;;1.50;;
80101;SDS011;69407;44.966;19.622;2023-07-28T12:55:53;5.93;;;1.30;;
80101;SDS011;69407;44.966;19.622;2023-07-28T12:58:20;5.30;;;1.55;;
80101;SDS011;69407;44.966;19.622;2023-07-28T13:00:45;2.60;;;1.08;;
80101;SDS011;69407;44.966;19.622;2023-07-28T13:03:10;4.43;;;1.50;;
80101;SDS011;69407;44.966;19.622;2023-07-28T13:05:36;4.50;;;1.40;;
80101;SDS011;69407;44.966;19.622;2023-07-28T13:08:02;5.38;;;1.33;;
80101;SDS011;69407;44.966;19.622;2023-07-28T13:10:27;2.67;;;1.20;;
80101;SDS011;69407;44.966;19.622;2023-07-28T13:12:52;4.53;;;1.40;;
80101;SDS011;69407;44.966;19.622;2023-07-28T13:15:17;3.17;;;0.97;;
80101;SDS011;69407;44.966;19.622;2023-07-28T13:17:43;2.53;;;0.90;;
80101;SDS011;69407;44.966;19.622;2023-07-28T13:20:08;4.30;;;0.90;;
80101;SDS011;69407;44.966;19.622;2023-07-28T13:22:34;2.95;;;1.00;;
80101;SDS011;69407;44.966;19.622;2023-07-28T13:24:59;3.72;;;1.10;;
80101;SDS011;69407;44.966;19.622;2023-07-28T13:27:25;2.88;;;1.27;;
80101;SDS011;69407;44.966;19.622;2023-07-28T13:29:50;2.67;;;1.10;;
80101;SDS011;69407;44.966;19.622;2023-07-28T13:32:16;3.22;;;0.90;;
80101;SDS011;69407;44.966;19.622;2023-07-28T13:34:42;2.03;;;0.98;;
80101;SDS011;69407;44.966;19.622;2023-07-28T13:37:07;7.88;;;1.00;;
80101;SDS011;69407;44.966;19.622;2023-07-28T13:39:32;1.70;;;0.90;;
80101;SDS011;69407;44.966;19.622;2023-07-28T13:41:57;3.47;;;1.17;;
80101;SDS011;69407;44.966;19.622;2023-07-28T13:44:23;2.23;;;1.10;;
80101;SDS011;69407;44.966;19.622;2023-07-28T13:46:48;3.00;;;0.83;;
80101;SDS011;69407;44.966;19.622;2023-07-28T13:49:13;3.28;;;0.98;;
80101;SDS011;69407;44.966;19.622;2023-07-28T13:51:39;2.97;;;1.10;;
80101;SDS011;69407;44.966;19.622;2023-07-28T13:54:04;2.08;;;0.98;;
80101;SDS011;69407;44.966;19.622;2023-07-28T13:56:29;2.20;;;0.90;;
80101;SDS011;69407;44.966;19.622;2023-07-28T13:58:54;2.53;;;1.08;;
80101;SDS011;69407;44.966;19.622;2023-07-28T14:01:20;4.43;;;1.60;;
80101;SDS011;69407;44.966;19.622;2023-07-28T14:03:46;4.15;;;1.48;;
80101;SDS011;69407;44.966;19.622;2023-07-28T14:06:11;2.72;;;1.23;;
80101;SDS011;69407;44.966;19.622;2023-07-28T14:08:36;5.40;;;1.58;;
80101;SDS011;69407;44.966;19.622;2023-07-28T14:11:01;2.87;;;1.10;;
80101;SDS011;69407;44.966;19.622;2023-07-28T14:13:27;5.20;;;1.63;;
80101;SDS011;69407;44.966;19.622;2023-07-28T14:15:52;3.63;;;1.13;;
80101;SDS011;69407;44.966;19.622;2023-07-28T14:18:17;3.13;;;1.13;;
80101;SDS011;69407;44.966;19.622;2023-07-28T14:20:43;2.28;;;1.10;;
80101;SDS011;69407;44.966;19.622;2023-07-28T14:23:25;3.43;;;1.33;;
80101;SDS011;69407;44.966;19.622;2023-07-28T14:25:50;3.70;;;1.52;;
80101;SDS011;69407;44.966;19.622;2023-07-28T14:28:16;3.78;;;1.27;;
80101;SDS011;69407;44.966;19.622;2023-07-28T14:30:41;2.40;;;1.10;;
80101;SDS011;69407;44.966;19.622;2023-07-28T14:33:11;2.92;;;1.10;;
80101;SDS011;69407;44.966;19.622;2023-07-28T14:35:36;3.50;;;1.13;;
80101;SDS011;69407;44.966;19.622;2023-07-28T14:38:02;3.03;;;1.23;;